Karamay, China
Current Conditions -  °F | °C
As of 10:30 AM on Monday 22 Dec 2014 (Local Time) from ZWWW Reporting Station
Smoke Smoke  
Wind Chill: 12°   Ceiling: Unl
Heat Index: 12°   Visibility: 2.5mi
Dew Point:   Wind: 2mph
Humidity: 73%   Direction: NA
Pressure: 30.24"   Gusts: NA
Location:  45.6°N, 84.86°E
Report Text: ZWWW 220230Z VRB01MPS 4000 FU NSC M11/M15 Q1024 BECMGTL04002000 FU
Loading
Personal Weather Stations






























Interactive Weather Map New forecast layout! Learn more

10-Day Weather Forecast

Advertisements
Track Severe Weather on mobile